Time;durP1;ratioP1;P1;durP2;ratioP2;P2;SDS_P1;SDS_P2;PMS_P1;PMS_P2;Temp;Humidity;BMP_temperature;BMP_pressure;BME280_temperature;BME280_humidity;BME280_pressure;Samples;Min_cycle;Max_cycle;Signal;HPM_P1;HPM_P2
2022/03/10 00:02:12;;;;;;;40.72;21.85;;;2.00;93.60;;;;;;5041849;28;20108;-81
2022/03/10 00:04:38;;;;;;;34.10;18.45;;;2.10;94.20;;;;;;5055484;28;20112;-81
2022/03/10 00:07:05;;;;;;;29.38;15.95;;;2.20;93.90;;;;;;5037299;28;20040;-81
2022/03/10 00:09:34;;;;;;;33.13;18.10;;;2.20;93.30;;;;;;5058034;28;20049;-81
2022/03/10 00:12:00;;;;;;;31.27;18.23;;;2.00;93.90;;;;;;5050775;28;20025;-77
2022/03/10 00:14:26;;;;;;;32.35;17.73;;;2.10;94.00;;;;;;5031187;28;20393;-80
2022/03/10 00:16:53;;;;;;;31.65;17.85;;;2.00;94.40;;;;;;5053161;28;20049;-79
2022/03/10 00:19:19;;;;;;;36.92;18.48;;;1.90;94.40;;;;;;5037357;28;20032;-81
2022/03/10 00:21:45;;;;;;;35.42;20.10;;;1.70;94.70;;;;;;5035077;28;20040;-81
2022/03/10 00:24:11;;;;;;;28.52;17.13;;;1.80;95.40;;;;;;5038748;28;20032;-80
2022/03/10 00:26:37;;;;;;;31.23;17.23;;;1.70;95.80;;;;;;5031408;28;20081;-79
2022/03/10 00:29:04;;;;;;;34.47;17.65;;;1.70;96.10;;;;;;5055241;28;20030;-81
2022/03/10 00:31:29;;;;;;;34.15;19.45;;;1.70;96.30;;;;;;5040690;28;20025;-81
2022/03/10 00:33:55;;;;;;;28.13;17.60;;;1.60;96.70;;;;;;5040581;28;20113;-80
2022/03/10 00:36:20;;;;;;;31.92;18.33;;;1.60;97.10;;;;;;5041009;28;20134;-80
2022/03/10 00:38:46;;;;;;;28.27;16.80;;;1.50;97.20;;;;;;5054896;28;20131;-81
2022/03/10 00:41:12;;;;;;;30.60;18.38;;;1.60;97.60;;;;;;5041036;28;20047;-81
2022/03/10 00:43:37;;;;;;;30.80;17.27;;;1.60;97.70;;;;;;5037599;28;20025;-78
2022/03/10 00:46:03;;;;;;;34.55;19.58;;;1.60;97.80;;;;;;5030018;28;20028;-80
2022/03/10 00:48:28;;;;;;;28.25;16.38;;;1.70;97.90;;;;;;5031816;28;20026;-81
2022/03/10 00:50:54;;;;;;;26.98;16.92;;;1.80;97.60;;;;;;5040361;28;20119;-80
2022/03/10 00:53:20;;;;;;;33.25;18.48;;;1.80;97.10;;;;;;5059031;28;20029;-79
2022/03/10 00:55:45;;;;;;;29.55;18.75;;;1.70;97.50;;;;;;5043484;28;20049;-79
2022/03/10 00:58:11;;;;;;;29.52;17.85;;;1.60;97.90;;;;;;5041933;28;20040;-86
2022/03/10 01:00:37;;;;;;;26.42;16.88;;;1.60;97.90;;;;;;5030063;28;20112;-77
2022/03/10 01:03:04;;;;;;;35.47;16.25;;;1.60;98.40;;;;;;5042753;28;20036;-78
2022/03/10 01:05:30;;;;;;;25.95;16.27;;;1.60;98.50;;;;;;5032781;28;20103;-79
2022/03/10 01:07:55;;;;;;;31.83;18.42;;;1.60;98.70;;;;;;5026077;28;20072;-75
2022/03/10 01:10:21;;;;;;;34.42;18.80;;;1.60;98.80;;;;;;5030162;28;20082;-77
2022/03/10 01:12:47;;;;;;;33.55;18.33;;;1.60;98.80;;;;;;5031520;28;20056;-78
2022/03/10 01:15:15;;;;;;;31.15;18.58;;;1.60;98.70;;;;;;5031428;28;20394;-78
2022/03/10 01:17:41;;;;;;;24.80;16.83;;;1.40;99.20;;;;;;5047657;28;20036;-76
2022/03/10 01:20:07;;;;;;;31.42;18.08;;;1.40;99.80;;;;;;5030690;28;20038;-76
2022/03/10 01:22:35;;;;;;;30.17;16.70;;;1.40;99.90;;;;;;5043862;28;20021;-77
2022/03/10 01:25:00;;;;;;;29.85;17.60;;;1.30;99.90;;;;;;5047995;28;20026;-76
2022/03/10 01:27:26;;;;;;;32.70;18.15;;;1.30;99.90;;;;;;5026804;28;20025;-77
2022/03/10 01:29:51;;;;;;;32.72;18.48;;;1.30;99.90;;;;;;5030299;28;20034;-77
2022/03/10 01:32:17;;;;;;;29.88;17.67;;;1.20;99.90;;;;;;5022588;28;20088;-77
2022/03/10 01:34:42;;;;;;;31.23;18.23;;;1.20;99.90;;;;;;5032070;28;20430;-77
2022/03/10 01:37:08;;;;;;;35.20;20.02;;;1.20;99.90;;;;;;5034016;28;20021;-80
2022/03/10 01:39:34;;;;;;;33.95;20.13;;;1.20;99.90;;;;;;5051720;28;20113;-81
2022/03/10 01:42:00;;;;;;;28.90;18.77;;;1.20;99.90;;;;;;5050096;28;20041;-80
2022/03/10 01:44:26;;;;;;;29.38;18.10;;;1.30;99.90;;;;;;5023796;28;20087;-82
2022/03/10 01:46:52;;;;;;;28.35;17.33;;;1.20;99.90;;;;;;5039333;28;20108;-78
2022/03/10 01:49:17;;;;;;;27.25;16.10;;;1.20;99.90;;;;;;5037082;28;20037;-78
2022/03/10 01:51:43;;;;;;;24.55;16.42;;;1.20;99.90;;;;;;5039909;28;20026;-77
2022/03/10 01:54:09;;;;;;;36.55;20.13;;;1.20;99.90;;;;;;5038133;28;20486;-78
2022/03/10 01:56:35;;;;;;;28.23;17.25;;;1.20;99.90;;;;;;5051810;28;20021;-77
2022/03/10 01:59:02;;;;;;;32.70;19.02;;;1.20;99.90;;;;;;5034675;28;20038;-77
2022/03/10 02:01:28;;;;;;;29.85;17.40;;;1.30;99.90;;;;;;5033600;28;20026;-78
2022/03/10 02:03:57;;;;;;;29.42;20.40;;;1.30;99.90;;;;;;5050087;28;20046;-78
2022/03/10 02:06:23;;;;;;;33.08;19.08;;;1.30;99.90;;;;;;5047913;28;20464;-77
2022/03/10 02:11:34;;;;;;;31.58;17.48;;;1.30;99.90;;;;;;5034133;28;20075;-79
2022/03/10 02:17:19;;;;;;;28.85;17.77;;;1.30;99.90;;;;;;5047000;28;20026;-83
2022/03/10 02:19:29;;;;;;;31.08;17.50;;;1.10;99.90;;;;;;5049248;28;20045;-82
2022/03/10 02:21:57;;;;;;;31.40;18.77;;;1.10;99.90;;;;;;5064274;28;20029;-80
2022/03/10 02:24:24;;;;;;;28.73;16.33;;;1.10;99.90;;;;;;5059728;28;20033;-75
2022/03/10 02:26:50;;;;;;;28.30;16.42;;;1.00;99.90;;;;;;5031907;28;20060;-75
2022/03/10 02:29:16;;;;;;;32.95;18.35;;;0.90;99.90;;;;;;5031813;28;20178;-75
2022/03/10 02:31:42;;;;;;;29.40;18.70;;;0.90;99.90;;;;;;5032727;28;20095;-76
2022/03/10 02:34:10;;;;;;;32.60;18.75;;;0.90;99.90;;;;;;5049172;28;20030;-74
2022/03/10 02:36:36;;;;;;;30.52;17.73;;;1.00;99.90;;;;;;5033903;28;20511;-74
2022/03/10 02:39:01;;;;;;;31.80;19.13;;;0.90;99.90;;;;;;5033144;28;20026;-75
2022/03/10 02:41:27;;;;;;;29.33;18.65;;;1.00;99.90;;;;;;5032571;28;20045;-74
2022/03/10 02:43:52;;;;;;;30.08;18.52;;;1.00;99.90;;;;;;5032925;28;20648;-75
2022/03/10 02:46:18;;;;;;;28.40;18.63;;;0.90;99.90;;;;;;5026351;28;20529;-75
2022/03/10 02:48:43;;;;;;;35.78;16.55;;;1.00;99.90;;;;;;5023509;28;20401;-75
2022/03/10 02:51:09;;;;;;;28.95;18.50;;;1.00;99.90;;;;;;5034538;28;20025;-74
2022/03/10 02:53:35;;;;;;;36.38;19.23;;;0.90;99.90;;;;;;5031992;28;20096;-74
2022/03/10 02:56:00;;;;;;;26.90;18.20;;;0.80;99.90;;;;;;5029177;28;20022;-75
2022/03/10 02:58:26;;;;;;;32.97;18.80;;;0.70;99.90;;;;;;5032996;28;20052;-76
2022/03/10 03:00:52;;;;;;;30.95;18.33;;;0.70;99.90;;;;;;5029137;28;20701;-75
2022/03/10 03:03:18;;;;;;;27.27;17.55;;;0.80;99.90;;;;;;5033756;28;20045;-75
2022/03/10 03:05:43;;;;;;;32.33;18.75;;;0.80;99.90;;;;;;5033334;28;20060;-75
2022/03/10 03:08:09;;;;;;;29.35;18.83;;;0.80;99.90;;;;;;5031602;28;20418;-79
2022/03/10 03:10:36;;;;;;;28.85;17.65;;;0.90;99.90;;;;;;5033634;28;20030;-75
2022/03/10 03:13:03;;;;;;;30.30;18.25;;;0.90;99.90;;;;;;5025839;28;20082;-75
2022/03/10 03:15:28;;;;;;;31.08;18.15;;;0.80;99.90;;;;;;5032359;28;20022;-75
2022/03/10 03:17:54;;;;;;;32.97;18.92;;;0.80;99.90;;;;;;5031993;28;20505;-76
2022/03/10 03:20:19;;;;;;;32.75;18.35;;;0.70;99.90;;;;;;5033538;28;20036;-76
2022/03/10 03:22:45;;;;;;;34.45;18.63;;;0.80;99.90;;;;;;5036829;28;20057;-75
2022/03/10 03:25:14;;;;;;;29.65;17.90;;;0.70;99.90;;;;;;5041481;28;20020;-75
2022/03/10 03:27:41;;;;;;;32.40;17.92;;;0.70;99.90;;;;;;5043502;28;20496;-75
2022/03/10 03:30:08;;;;;;;32.28;17.33;;;0.60;99.90;;;;;;5034764;28;20079;-74
2022/03/10 03:32:33;;;;;;;36.30;19.13;;;0.50;99.90;;;;;;5032532;28;20018;-75
2022/03/10 03:34:59;;;;;;;29.98;19.73;;;0.50;99.90;;;;;;5023907;28;20025;-75
2022/03/10 03:37:25;;;;;;;30.70;18.52;;;0.50;99.90;;;;;;5031852;28;20032;-74
2022/03/10 03:39:50;;;;;;;30.65;18.88;;;0.50;99.90;;;;;;5047391;28;20048;-74
2022/03/10 03:42:16;;;;;;;35.67;20.08;;;0.50;99.90;;;;;;5033415;28;20037;-75
2022/03/10 03:44:41;;;;;;;33.45;19.73;;;0.60;99.90;;;;;;5030683;28;20087;-74
2022/03/10 03:47:07;;;;;;;31.65;20.58;;;0.50;99.90;;;;;;5032092;28;20060;-74
2022/03/10 03:49:32;;;;;;;35.63;21.02;;;0.50;99.90;;;;;;5031324;28;20037;-75
2022/03/10 03:51:58;;;;;;;32.70;19.30;;;0.40;99.90;;;;;;5027416;28;20378;-75
2022/03/10 03:54:24;;;;;;;29.35;17.95;;;0.40;99.90;;;;;;5032514;28;20422;-75
2022/03/10 03:56:50;;;;;;;30.80;18.92;;;0.40;99.90;;;;;;5032043;28;20093;-74
2022/03/10 03:59:16;;;;;;;29.33;18.42;;;0.50;99.90;;;;;;5033235;28;20175;-74
2022/03/10 04:01:41;;;;;;;34.13;21.60;;;0.50;99.90;;;;;;5027751;28;20061;-75
2022/03/10 04:04:07;;;;;;;30.70;18.95;;;0.50;99.90;;;;;;5031736;28;20037;-74
2022/03/10 04:06:33;;;;;;;42.80;22.33;;;0.40;99.90;;;;;;5030550;28;20052;-75
2022/03/10 04:08:58;;;;;;;32.47;20.67;;;0.30;99.90;;;;;;5030750;28;20052;-75
2022/03/10 04:11:24;;;;;;;36.00;20.63;;;0.30;99.90;;;;;;5031150;28;20029;-75
2022/03/10 04:13:50;;;;;;;34.90;18.75;;;0.20;99.90;;;;;;5032120;28;20033;-75
2022/03/10 04:16:15;;;;;;;37.30;20.25;;;0.20;99.90;;;;;;5032308;28;20014;-75
2022/03/10 04:18:41;;;;;;;32.75;19.67;;;0.20;99.90;;;;;;5032076;28;20108;-75
2022/03/10 04:21:07;;;;;;;37.00;19.85;;;0.20;99.90;;;;;;5046517;28;20037;-75
2022/03/10 04:23:33;;;;;;;36.63;21.90;;;0.30;99.90;;;;;;5047084;28;20493;-75
2022/03/10 04:25:59;;;;;;;35.22;20.45;;;0.20;99.90;;;;;;5031833;28;20040;-75
2022/03/10 04:28:24;;;;;;;35.60;19.50;;;0.20;99.90;;;;;;5031787;28;20030;-75
2022/03/10 04:30:50;;;;;;;35.05;21.20;;;0.20;99.90;;;;;;5031915;28;20662;-75
2022/03/10 04:33:16;;;;;;;41.42;20.92;;;0.20;99.90;;;;;;5031020;28;20112;-74
2022/03/10 04:35:41;;;;;;;36.15;20.85;;;0.20;99.90;;;;;;5030444;28;20110;-76
2022/03/10 04:38:07;;;;;;;33.15;20.50;;;0.20;99.90;;;;;;5031309;28;20450;-75
2022/03/10 04:40:33;;;;;;;33.45;20.58;;;0.20;99.90;;;;;;5043418;28;20013;-74
2022/03/10 04:42:59;;;;;;;29.90;19.38;;;0.20;99.90;;;;;;5028050;28;20094;-74
2022/03/10 04:45:25;;;;;;;36.28;20.83;;;0.10;99.90;;;;;;5029919;28;20116;-75
2022/03/10 04:47:50;;;;;;;33.50;20.60;;;0.20;99.90;;;;;;5031534;28;20017;-74
2022/03/10 04:50:17;;;;;;;35.35;20.27;;;0.10;99.90;;;;;;5031102;28;20022;-75
2022/03/10 04:52:43;;;;;;;37.67;20.95;;;0.10;99.90;;;;;;5031084;28;20489;-75
2022/03/10 04:55:10;;;;;;;34.70;20.80;;;0.10;99.90;;;;;;5031069;28;20030;-75
2022/03/10 04:57:37;;;;;;;33.53;20.25;;;0.10;99.90;;;;;;5031948;28;20513;-75
2022/03/10 05:00:10;;;;;;;36.95;19.25;;;0.00;99.90;;;;;;5028586;28;20069;-74
2022/03/10 05:02:36;;;;;;;32.92;18.50;;;0.00;99.90;;;;;;5031634;28;20406;-75
2022/03/10 05:05:03;;;;;;;37.80;20.85;;;-0.10;99.90;;;;;;5031210;28;20033;-75
2022/03/10 05:07:28;;;;;;;38.30;19.77;;;-0.10;99.90;;;;;;5018886;28;20025;-75
2022/03/10 05:09:54;;;;;;;35.35;19.13;;;0.00;99.90;;;;;;5028274;28;20401;-74
2022/03/10 05:12:20;;;;;;;34.03;22.05;;;-0.10;99.90;;;;;;5022734;28;20057;-75
2022/03/10 05:14:46;;;;;;;43.13;20.95;;;-0.10;99.90;;;;;;5029900;28;20037;-75
2022/03/10 05:17:12;;;;;;;33.75;18.73;;;-0.10;99.90;;;;;;5031236;28;20036;-74
2022/03/10 05:19:37;;;;;;;34.55;19.85;;;0.00;99.90;;;;;;5031101;28;20116;-76
2022/03/10 05:22:03;;;;;;;36.15;19.40;;;0.10;99.90;;;;;;5030837;28;20100;-74
2022/03/10 05:24:28;;;;;;;33.80;19.30;;;0.10;99.90;;;;;;5031092;28;20030;-74
2022/03/10 05:26:54;;;;;;;41.90;21.75;;;0.00;99.90;;;;;;5031064;28;20037;-75
2022/03/10 05:29:19;;;;;;;34.78;19.00;;;0.00;99.90;;;;;;5030851;28;20026;-74
2022/03/10 05:31:45;;;;;;;34.85;19.95;;;0.00;99.90;;;;;;5026821;28;20024;-75
2022/03/10 05:34:11;;;;;;;34.30;19.60;;;0.00;99.90;;;;;;5031006;28;20037;-74
2022/03/10 05:36:36;;;;;;;36.10;19.40;;;0.10;99.90;;;;;;5030989;28;20022;-76
2022/03/10 05:39:03;;;;;;;30.30;18.58;;;0.20;99.90;;;;;;5030883;28;20029;-75
2022/03/10 05:41:31;;;;;;;30.25;19.00;;;0.20;99.90;;;;;;5030723;28;20033;-75
2022/03/10 05:43:56;;;;;;;31.33;18.55;;;0.20;99.90;;;;;;5030923;28;20022;-74
2022/03/10 05:46:22;;;;;;;35.50;20.83;;;0.20;99.90;;;;;;5029494;28;20370;-75
2022/03/10 05:48:47;;;;;;;34.20;18.67;;;0.20;99.90;;;;;;5024425;28;20508;-74
2022/03/10 05:51:13;;;;;;;38.70;19.98;;;0.20;99.90;;;;;;5030916;28;20022;-74
2022/03/10 05:53:39;;;;;;;38.70;21.08;;;0.20;99.90;;;;;;5029769;28;20021;-75
2022/03/10 05:56:04;;;;;;;38.08;19.95;;;0.20;99.90;;;;;;5031309;28;20089;-74
2022/03/10 05:58:30;;;;;;;31.27;19.10;;;0.10;99.90;;;;;;5030566;28;20025;-75
2022/03/10 06:00:55;;;;;;;36.30;21.45;;;0.00;99.90;;;;;;5029825;28;20029;-75
2022/03/10 06:03:21;;;;;;;35.60;21.50;;;0.00;99.90;;;;;;5030266;28;20099;-75
2022/03/10 06:05:46;;;;;;;36.30;21.20;;;0.10;99.90;;;;;;5030670;28;20025;-75
2022/03/10 06:08:12;;;;;;;42.40;21.33;;;0.20;99.90;;;;;;5029825;28;20033;-75
2022/03/10 06:10:37;;;;;;;38.38;20.92;;;0.10;99.90;;;;;;5030881;28;20410;-74
2022/03/10 06:13:03;;;;;;;36.28;21.35;;;0.20;99.90;;;;;;5041736;28;20025;-74
2022/03/10 06:15:29;;;;;;;34.28;19.80;;;0.20;99.90;;;;;;5030395;28;20018;-75
2022/03/10 06:17:55;;;;;;;31.27;19.88;;;0.30;99.90;;;;;;5030099;28;20052;-74
2022/03/10 06:20:20;;;;;;;39.63;21.70;;;0.30;99.90;;;;;;5028947;28;20025;-74
2022/03/10 06:22:46;;;;;;;36.60;21.10;;;0.40;99.90;;;;;;5032139;28;20025;-74
2022/03/10 06:25:11;;;;;;;37.35;19.67;;;0.40;99.90;;;;;;5034204;28;20049;-75
2022/03/10 06:27:37;;;;;;;33.88;19.48;;;0.50;99.90;;;;;;5038297;28;20036;-74
2022/03/10 06:30:03;;;;;;;40.75;20.08;;;0.60;99.90;;;;;;5046779;28;20069;-74
2022/03/10 06:32:28;;;;;;;37.20;22.90;;;0.70;99.90;;;;;;5040680;28;20026;-75
2022/03/10 06:34:57;;;;;;;38.35;20.50;;;0.80;99.90;;;;;;5055223;28;20109;-74
2022/03/10 06:37:23;;;;;;;36.97;20.38;;;0.90;99.90;;;;;;5065249;28;20049;-73
2022/03/10 06:39:49;;;;;;;31.90;18.67;;;1.00;99.90;;;;;;5040964;28;20029;-76
2022/03/10 06:42:15;;;;;;;35.20;21.15;;;1.00;99.90;;;;;;5047157;28;20022;-74
2022/03/10 06:44:40;;;;;;;34.40;20.15;;;1.10;99.90;;;;;;5048068;28;20088;-75
2022/03/10 06:47:09;;;;;;;32.10;21.15;;;1.40;99.90;;;;;;5034208;28;21343;-76
2022/03/10 06:49:34;;;;;;;37.35;19.88;;;1.60;99.90;;;;;;5033600;28;20536;-74
2022/03/10 06:52:00;;;;;;;39.88;19.90;;;1.60;99.90;;;;;;5029305;28;20026;-74
2022/03/10 06:54:26;;;;;;;34.83;20.80;;;1.50;99.90;;;;;;5033818;28;20448;-74
2022/03/10 06:56:51;;;;;;;37.55;20.65;;;1.60;99.90;;;;;;5033338;28;20021;-74
2022/03/10 06:59:17;;;;;;;37.53;20.95;;;1.60;99.90;;;;;;5033837;28;20513;-74
2022/03/10 07:01:43;;;;;;;33.95;18.77;;;1.60;99.90;;;;;;5033794;28;20025;-74
2022/03/10 07:04:09;;;;;;;35.00;18.35;;;1.70;99.90;;;;;;5034882;28;20536;-75
2022/03/10 07:06:34;;;;;;;34.65;19.35;;;1.80;99.90;;;;;;5033821;28;20547;-74
2022/03/10 07:09:00;;;;;;;38.10;19.20;;;2.00;99.90;;;;;;5033573;28;20112;-74
2022/03/10 07:11:26;;;;;;;36.08;21.05;;;2.10;99.90;;;;;;5048982;28;20535;-75
2022/03/10 07:13:52;;;;;;;30.25;19.17;;;2.20;99.90;;;;;;5033853;28;20055;-75
2022/03/10 07:16:18;;;;;;;38.13;19.38;;;2.40;99.90;;;;;;5033583;28;20062;-74
2022/03/10 07:18:50;;;;;;;32.30;21.42;;;2.60;99.90;;;;;;5033975;28;20025;-74
2022/03/10 07:21:19;;;;;;;34.33;19.90;;;2.80;99.90;;;;;;5034238;28;20044;-74
2022/03/10 07:23:45;;;;;;;30.80;19.90;;;3.00;99.90;;;;;;5033963;28;20071;-74
2022/03/10 07:26:12;;;;;;;37.20;20.70;;;3.10;99.60;;;;;;5033581;28;20493;-74
2022/03/10 07:28:37;;;;;;;29.77;18.50;;;3.10;99.50;;;;;;5026975;28;20029;-74
2022/03/10 07:31:03;;;;;;;32.47;20.80;;;3.20;99.40;;;;;;5036150;28;20040;-75
2022/03/10 07:33:28;;;;;;;44.22;18.50;;;3.20;99.20;;;;;;5041173;28;20080;-74
2022/03/10 07:35:55;;;;;;;32.50;20.25;;;3.20;99.30;;;;;;5041887;28;20030;-75
2022/03/10 07:38:20;;;;;;;37.40;19.50;;;3.40;99.00;;;;;;5042206;28;20061;-75
2022/03/10 07:40:46;;;;;;;32.17;19.95;;;3.40;98.50;;;;;;5033773;28;20041;-74
2022/03/10 07:43:12;;;;;;;42.03;23.73;;;3.50;98.40;;;;;;5032333;28;20071;-74
2022/03/10 07:45:37;;;;;;;33.47;21.23;;;3.60;98.10;;;;;;5029579;28;20021;-74
2022/03/10 07:48:04;;;;;;;37.38;21.00;;;3.70;97.50;;;;;;5033858;28;20026;-75
2022/03/10 07:50:29;;;;;;;35.80;19.42;;;3.70;97.80;;;;;;5030744;28;20022;-75
2022/03/10 07:52:55;;;;;;;29.50;19.98;;;3.80;97.40;;;;;;5031376;28;20029;-74
2022/03/10 07:55:21;;;;;;;35.38;20.77;;;4.00;97.20;;;;;;5034021;28;20021;-75
2022/03/10 07:57:46;;;;;;;38.28;20.30;;;4.10;96.80;;;;;;5043618;28;20045;-74
2022/03/10 08:00:12;;;;;;;30.13;18.85;;;4.20;96.40;;;;;;5052309;28;20042;-73
2022/03/10 08:02:38;;;;;;;31.55;19.20;;;4.50;95.80;;;;;;5057819;28;20036;-75
2022/03/10 08:05:04;;;;;;;30.08;19.08;;;4.60;95.60;;;;;;5060682;28;20025;-73
2022/03/10 08:07:34;;;;;;;31.67;19.90;;;4.70;94.90;;;;;;5057402;28;20013;-73
2022/03/10 08:10:05;;;;;;;27.53;19.33;;;4.70;94.90;;;;;;5057050;28;20040;-74
2022/03/10 08:12:32;;;;;;;33.05;21.58;;;4.70;94.40;;;;;;5057936;28;20018;-74
2022/03/10 08:14:59;;;;;;;29.02;18.63;;;4.90;94.20;;;;;;5054188;28;20030;-73
2022/03/10 08:17:25;;;;;;;31.27;20.10;;;5.10;93.60;;;;;;5054542;28;20014;-74
2022/03/10 08:19:52;;;;;;;32.97;18.58;;;5.30;93.30;;;;;;5057205;28;20021;-73
2022/03/10 08:22:18;;;;;;;29.70;18.98;;;5.40;92.90;;;;;;5045476;28;20421;-75
2022/03/10 08:24:45;;;;;;;32.80;19.25;;;5.60;92.60;;;;;;5049160;28;20171;-74
2022/03/10 08:27:11;;;;;;;38.05;21.20;;;5.80;92.00;;;;;;5031732;28;20389;-74
2022/03/10 08:29:37;;;;;;;32.17;20.00;;;5.90;91.60;;;;;;5035406;28;20124;-77
2022/03/10 08:32:03;;;;;;;31.40;19.95;;;5.80;91.40;;;;;;5040893;28;20049;-74
2022/03/10 08:34:30;;;;;;;36.90;21.33;;;5.90;91.70;;;;;;5060240;28;20021;-74
2022/03/10 08:36:56;;;;;;;35.90;20.45;;;6.10;91.20;;;;;;5045160;28;20197;-74
2022/03/10 08:39:21;;;;;;;34.88;21.17;;;6.20;91.50;;;;;;5044958;28;20030;-74
2022/03/10 08:41:49;;;;;;;41.40;22.08;;;6.30;91.30;;;;;;5048852;28;20039;-79
2022/03/10 08:44:15;;;;;;;34.65;21.42;;;6.50;90.80;;;;;;5054330;28;20099;-77
2022/03/10 08:46:41;;;;;;;37.45;21.83;;;6.40;91.20;;;;;;5049984;28;20037;-79
2022/03/10 08:49:07;;;;;;;29.00;18.45;;;6.60;91.10;;;;;;5042771;28;20033;-79
2022/03/10 08:51:33;;;;;;;24.45;17.73;;;6.80;90.40;;;;;;5038223;28;20021;-79
2022/03/10 08:53:58;;;;;;;33.22;18.35;;;6.90;90.20;;;;;;5058223;28;20026;-80
2022/03/10 08:56:24;;;;;;;30.70;17.45;;;7.00;90.10;;;;;;5041173;28;20079;-81
2022/03/10 08:58:49;;;;;;;39.15;19.05;;;7.20;89.80;;;;;;5045223;28;20026;-81
2022/03/10 09:01:15;;;;;;;30.90;19.02;;;7.20;88.70;;;;;;5046972;28;20040;-79
2022/03/10 09:03:41;;;;;;;26.20;17.08;;;7.30;88.50;;;;;;5043895;28;20049;-80
2022/03/10 09:06:07;;;;;;;27.77;15.70;;;7.40;88.00;;;;;;5045393;28;20025;-78
2022/03/10 09:08:33;;;;;;;27.08;17.35;;;7.50;88.00;;;;;;5034880;28;20044;-80
2022/03/10 09:10:59;;;;;;;31.60;16.88;;;7.70;87.30;;;;;;5047463;28;20026;-80
2022/03/10 09:13:25;;;;;;;23.77;16.98;;;7.80;86.60;;;;;;5056468;28;20029;-80
2022/03/10 09:15:51;;;;;;;24.67;17.20;;;7.90;86.30;;;;;;5051739;28;20029;-80
2022/03/10 09:18:17;;;;;;;25.52;17.10;;;8.00;85.80;;;;;;5036957;28;20037;-80
2022/03/10 09:20:42;;;;;;;26.10;15.85;;;8.00;86.00;;;;;;5034528;28;20487;-81
2022/03/10 09:23:08;;;;;;;22.63;16.25;;;8.20;85.20;;;;;;5048769;28;20120;-80
2022/03/10 09:25:34;;;;;;;22.13;16.25;;;8.30;84.50;;;;;;5047010;28;20165;-81
2022/03/10 09:27:59;;;;;;;24.92;15.13;;;8.40;84.70;;;;;;5034219;28;20049;-81
2022/03/10 09:30:25;;;;;;;20.33;15.43;;;8.60;83.40;;;;;;5043149;28;21340;-80
2022/03/10 09:32:50;;;;;;;25.02;15.50;;;8.70;83.30;;;;;;5056327;28;20414;-80
2022/03/10 09:35:17;;;;;;;22.73;15.50;;;8.80;82.80;;;;;;5038250;28;20021;-83
2022/03/10 09:37:44;;;;;;;20.48;15.18;;;8.80;82.50;;;;;;5060062;28;20112;-82
2022/03/10 09:40:10;;;;;;;22.13;13.88;;;9.00;82.20;;;;;;5044053;28;20029;-80
2022/03/10 09:42:37;;;;;;;22.88;14.90;;;9.20;81.40;;;;;;5043863;28;20417;-81
2022/03/10 09:45:07;;;;;;;21.17;13.73;;;9.40;81.00;;;;;;5061874;28;20029;-78
2022/03/10 09:47:35;;;;;;;23.58;15.30;;;9.50;80.50;;;;;;5032449;28;20045;-79
2022/03/10 09:50:04;;;;;;;20.75;15.15;;;9.60;79.90;;;;;;5037337;28;20036;-79
2022/03/10 09:52:31;;;;;;;17.58;13.38;;;9.80;79.50;;;;;;5041388;28;20525;-79
2022/03/10 09:54:58;;;;;;;17.83;14.07;;;9.90;79.40;;;;;;5042797;28;20111;-80
2022/03/10 09:57:25;;;;;;;19.08;13.70;;;10.00;78.40;;;;;;5040057;28;20025;-80
2022/03/10 09:59:56;;;;;;;25.25;14.30;;;10.20;77.90;;;;;;5060165;28;20085;-76
2022/03/10 10:02:21;;;;;;;22.40;13.95;;;10.30;77.10;;;;;;5039976;28;20022;-79
2022/03/10 10:04:48;;;;;;;19.08;12.95;;;10.40;76.50;;;;;;5047820;28;20030;-80
2022/03/10 10:07:18;;;;;;;22.67;12.52;;;10.50;76.00;;;;;;5062299;28;20026;-79
2022/03/10 10:09:51;;;;;;;20.35;12.43;;;10.40;76.00;;;;;;5063447;28;20029;-80
2022/03/10 10:12:17;;;;;;;16.85;9.80;;;10.60;75.30;;;;;;5051329;28;20022;-81
2022/03/10 10:14:45;;;;;;;17.88;13.38;;;10.80;73.90;;;;;;5046354;28;20068;-81
2022/03/10 10:17:11;;;;;;;15.65;11.30;;;10.90;74.30;;;;;;5047501;28;20025;-80
2022/03/10 10:19:37;;;;;;;18.23;12.93;;;11.00;74.30;;;;;;5044488;28;20034;-79
2022/03/10 10:22:18;;;;;;;20.48;12.60;;;11.10;73.60;;;;;;5044078;28;20033;-80
2022/03/10 10:24:55;;;;;;;;;;;11.20;73.70;;;;;;5048799;28;20045;-79
2022/03/10 10:27:34;;;;;;;14.23;11.20;;;11.30;72.90;;;;;;5049491;28;19932;-80
2022/03/10 10:30:05;;;;;;;20.13;12.57;;;11.50;72.40;;;;;;5064300;28;20040;-81
2022/03/10 10:32:31;;;;;;;17.77;11.02;;;11.60;71.90;;;;;;5036364;28;20421;-80
2022/03/10 10:35:09;;;;;;;20.10;12.10;;;11.70;71.00;;;;;;5042628;28;20022;-79
2022/03/10 10:37:39;;;;;;;13.95;10.25;;;11.70;71.00;;;;;;5035401;28;20026;-79
2022/03/10 10:40:06;;;;;;;14.20;10.70;;;11.90;70.50;;;;;;5061923;28;20033;-79
2022/03/10 10:42:37;;;;;;;12.13;10.82;;;12.10;69.90;;;;;;5048720;28;20260;-79
2022/03/10 10:45:22;;;;;;;;;;;12.30;69.30;;;;;;5058773;28;20041;-81
2022/03/10 10:48:05;;;;;;;13.02;9.55;;;12.40;69.20;;;;;;5042838;28;19936;-78
2022/03/10 10:50:36;;;;;;;13.77;8.48;;;12.50;68.70;;;;;;5050092;28;20029;-80
2022/03/10 10:53:03;;;;;;;11.18;8.70;;;12.70;67.50;;;;;;5050262;28;20033;-79
2022/03/10 10:55:35;;;;;;;11.15;6.53;;;12.90;66.70;;;;;;5053181;28;20026;-79
2022/03/10 10:58:15;;;;;;;7.32;6.63;;;12.90;65.50;;;;;;5045771;28;20028;-80
2022/03/10 11:00:46;;;;;;;11.73;7.22;;;13.00;65.20;;;;;;5063533;28;20052;-78
2022/03/10 11:03:22;;;;;;;10.40;6.88;;;13.10;65.30;;;;;;5056413;28;20121;-79
2022/03/10 11:05:48;;;;;;;6.47;4.85;;;13.30;64.60;;;;;;5046578;28;20469;-79
2022/03/10 11:08:17;;;;;;;7.68;5.47;;;13.40;63.50;;;;;;5064234;28;20033;-80
2022/03/10 11:10:42;;;;;;;4.57;4.10;;;13.40;62.70;;;;;;5048178;28;20143;-78
2022/03/10 11:13:08;;;;;;;8.35;3.40;;;13.50;61.90;;;;;;5048467;28;20025;-81
2022/03/10 11:15:34;;;;;;;6.57;3.10;;;13.70;60.90;;;;;;5048065;28;20045;-79
2022/03/10 11:18:00;;;;;;;6.13;3.10;;;13.80;59.90;;;;;;5040821;28;20033;-80
2022/03/10 11:20:29;;;;;;;3.05;2.75;;;13.90;59.90;;;;;;5048251;28;20033;-81
2022/03/10 11:23:27;;;;;;;3.38;2.90;;;14.00;59.30;;;;;;5061787;28;20033;-80
2022/03/10 11:26:24;;;;;;;7.40;3.08;;;13.90;58.60;;;;;;5043616;28;20042;-81
2022/03/10 11:28:51;;;;;;;5.35;2.80;;;14.00;58.40;;;;;;5039372;28;20048;-80
2022/03/10 11:31:17;;;;;;;7.50;3.45;;;14.10;57.90;;;;;;5055190;28;20029;-79
2022/03/10 11:33:44;;;;;;;4.68;3.20;;;14.10;57.50;;;;;;5045525;28;20048;-78
2022/03/10 11:36:20;;;;;;;5.03;3.05;;;14.10;57.20;;;;;;5033082;28;20037;-78
2022/03/10 11:38:52;;;;;;;3.20;2.60;;;14.00;57.50;;;;;;5031681;28;20039;-79
2022/03/10 11:41:18;;;;;;;5.72;2.70;;;14.20;57.00;;;;;;5043698;28;20021;-79
2022/03/10 11:43:58;;;;;;;3.58;2.85;;;14.20;57.20;;;;;;5035425;28;20486;-77
2022/03/10 11:46:26;;;;;;;4.35;2.95;;;14.30;56.40;;;;;;5036394;28;20033;-79
2022/03/10 11:49:11;;;;;;;3.78;3.00;;;14.40;56.50;;;;;;5043215;28;20030;-78
2022/03/10 11:51:53;;;;;;;3.53;3.03;;;14.30;56.40;;;;;;5029042;28;20100;-79
2022/03/10 11:54:27;;;;;;;3.42;2.67;;;14.50;56.10;;;;;;5035148;28;20045;-79
2022/03/10 11:56:53;;;;;;;3.58;2.67;;;14.50;56.10;;;;;;5031806;28;20067;-78
2022/03/10 11:59:23;;;;;;;6.55;2.47;;;14.60;55.90;;;;;;5050403;28;20057;-78
2022/03/10 12:01:49;;;;;;;3.08;2.58;;;14.80;54.50;;;;;;5034568;28;20486;-79
2022/03/10 12:04:17;;;;;;;3.67;2.95;;;14.70;53.90;;;;;;5053349;28;20029;-78
2022/03/10 12:06:56;;;;;;;4.00;3.25;;;14.80;54.70;;;;;;5038462;28;20072;-78
2022/03/10 12:09:36;;;;;;;3.03;2.70;;;14.70;54.40;;;;;;5052033;28;20029;-78
2022/03/10 12:12:25;;;;;;;2.83;2.40;;;14.80;53.70;;;;;;5034566;28;20037;-78
2022/03/10 12:14:55;;;;;;;4.55;2.25;;;14.70;53.40;;;;;;5038674;28;20021;-79
2022/03/10 12:17:44;;;;;;;3.00;2.22;;;14.80;52.90;;;;;;5036515;28;20545;-79
2022/03/10 12:20:36;;;;;;;3.63;2.47;;;14.80;52.50;;;;;;5036456;28;20121;-78
2022/03/10 12:23:10;;;;;;;3.60;2.72;;;14.80;52.30;;;;;;5037823;28;20021;-78
2022/03/10 12:25:44;;;;;;;3.63;2.88;;;14.90;52.50;;;;;;5034968;28;20021;-77
2022/03/10 12:28:19;;;;;;;3.25;2.72;;;14.90;52.20;;;;;;5036962;28;20017;-78
2022/03/10 12:30:44;;;;;;;3.97;2.47;;;14.80;52.20;;;;;;5033829;28;20021;-77
2022/03/10 12:33:11;;;;;;;5.35;2.83;;;14.90;51.60;;;;;;5021931;28;20045;-78
2022/03/10 12:35:38;;;;;;;3.83;2.95;;;15.00;52.10;;;;;;5027904;28;20018;-78
2022/03/10 12:38:04;;;;;;;4.70;3.47;;;15.00;51.90;;;;;;5026575;28;20486;-79
2022/03/10 12:40:32;;;;;;;4.18;2.80;;;15.00;51.90;;;;;;5035547;28;20056;-77
2022/03/10 12:43:22;;;;;;;6.30;3.70;;;15.00;51.90;;;;;;5029275;28;20022;-77
2022/03/10 12:45:48;;;;;;;3.45;3.15;;;15.10;51.90;;;;;;5036999;28;20029;-79